sensor_id;sensor_type;location;lat;lon;timestamp;pressure;altitude;pressure_sealevel;temperature;humidity
40838;BME280;29632;49.168;9.848;2023-03-15T00:02:02;96284.84;;;8.33;48.22
40838;BME280;29632;49.168;9.848;2023-03-15T00:04:28;96291.97;;;8.31;47.95
40838;BME280;29632;49.168;9.848;2023-03-15T00:06:54;96299.22;;;8.27;48.15
40838;BME280;29632;49.168;9.848;2023-03-15T00:09:19;96305.53;;;8.25;48.47
40838;BME280;29632;49.168;9.848;2023-03-15T00:11:47;96305.00;;;8.21;48.54
40838;BME280;29632;49.168;9.848;2023-03-15T00:14:13;96309.34;;;8.21;48.26
40838;BME280;29632;49.168;9.848;2023-03-15T00:16:39;96312.59;;;8.23;47.69
40838;BME280;29632;49.168;9.848;2023-03-15T00:19:07;96311.13;;;8.20;47.55
40838;BME280;29632;49.168;9.848;2023-03-15T00:21:33;96314.53;;;8.21;47.61
40838;BME280;29632;49.168;9.848;2023-03-15T00:24:00;96319.84;;;8.19;47.48
40838;BME280;29632;49.168;9.848;2023-03-15T00:26:26;96332.00;;;8.19;47.78
40838;BME280;29632;49.168;9.848;2023-03-15T00:28:51;96330.22;;;8.19;47.69
40838;BME280;29632;49.168;9.848;2023-03-15T00:31:22;96325.03;;;8.19;47.69
40838;BME280;29632;49.168;9.848;2023-03-15T00:33:49;96329.41;;;8.19;47.39
40838;BME280;29632;49.168;9.848;2023-03-15T00:36:18;96330.22;;;8.19;47.47
40838;BME280;29632;49.168;9.848;2023-03-15T00:38:48;96343.50;;;8.16;47.14
40838;BME280;29632;49.168;9.848;2023-03-15T00:41:15;96351.56;;;8.13;47.39
40838;BME280;29632;49.168;9.848;2023-03-15T00:43:41;96356.22;;;8.09;47.02
40838;BME280;29632;49.168;9.848;2023-03-15T00:46:07;96366.19;;;8.04;47.80
40838;BME280;29632;49.168;9.848;2023-03-15T00:48:33;96358.78;;;8.00;47.69
40838;BME280;29632;49.168;9.848;2023-03-15T00:51:05;96365.09;;;7.97;47.81
40838;BME280;29632;49.168;9.848;2023-03-15T00:53:32;96361.66;;;7.97;47.76
40838;BME280;29632;49.168;9.848;2023-03-15T00:55:58;96364.56;;;7.93;48.22
40838;BME280;29632;49.168;9.848;2023-03-15T00:58:27;96366.31;;;7.93;47.78
40838;BME280;29632;49.168;9.848;2023-03-15T01:00:53;96372.19;;;7.95;47.61
40838;BME280;29632;49.168;9.848;2023-03-15T01:03:18;96389.66;;;7.93;47.84
40838;BME280;29632;49.168;9.848;2023-03-15T01:05:44;96394.41;;;7.88;47.86
40838;BME280;29632;49.168;9.848;2023-03-15T01:08:10;96391.28;;;7.84;48.09
40838;BME280;29632;49.168;9.848;2023-03-15T01:10:35;96396.75;;;7.81;47.85
40838;BME280;29632;49.168;9.848;2023-03-15T01:13:01;96397.69;;;7.80;48.07
40838;BME280;29632;49.168;9.848;2023-03-15T01:15:26;96397.84;;;7.79;47.25
40838;BME280;29632;49.168;9.848;2023-03-15T01:17:52;96404.13;;;7.76;47.67
40838;BME280;29632;49.168;9.848;2023-03-15T01:20:18;96411.06;;;7.75;47.33
40838;BME280;29632;49.168;9.848;2023-03-15T01:22:43;96407.66;;;7.75;48.08
40838;BME280;29632;49.168;9.848;2023-03-15T01:25:09;96400.16;;;7.72;47.67
40838;BME280;29632;49.168;9.848;2023-03-15T01:27:35;96402.75;;;7.72;47.44
40838;BME280;29632;49.168;9.848;2023-03-15T01:30:00;96408.91;;;7.71;47.63
40838;BME280;29632;49.168;9.848;2023-03-15T01:32:26;96406.56;;;7.68;47.81
40838;BME280;29632;49.168;9.848;2023-03-15T01:34:52;96402.31;;;7.67;48.20
40838;BME280;29632;49.168;9.848;2023-03-15T01:37:17;96411.88;;;7.66;48.59
40838;BME280;29632;49.168;9.848;2023-03-15T01:39:43;96414.06;;;7.61;48.36
40838;BME280;29632;49.168;9.848;2023-03-15T01:42:09;96403.94;;;7.58;47.86
40838;BME280;29632;49.168;9.848;2023-03-15T01:47:17;96417.03;;;7.47;47.96
40838;BME280;29632;49.168;9.848;2023-03-15T01:49:45;96420.00;;;7.42;48.12
40838;BME280;29632;49.168;9.848;2023-03-15T01:52:12;96425.63;;;7.37;48.38
40838;BME280;29632;49.168;9.848;2023-03-15T01:54:50;96435.97;;;7.37;48.16
40838;BME280;29632;49.168;9.848;2023-03-15T01:57:20;96431.47;;;7.40;47.86
40838;BME280;29632;49.168;9.848;2023-03-15T01:59:53;96441.84;;;7.40;48.46
40838;BME280;29632;49.168;9.848;2023-03-15T02:02:22;96436.91;;;7.36;48.13
40838;BME280;29632;49.168;9.848;2023-03-15T02:04:54;96449.19;;;7.34;48.50
40838;BME280;29632;49.168;9.848;2023-03-15T02:07:22;96452.03;;;7.31;48.53
40838;BME280;29632;49.168;9.848;2023-03-15T02:10:03;96453.81;;;7.31;48.74
40838;BME280;29632;49.168;9.848;2023-03-15T02:12:31;96457.09;;;7.33;48.43
40838;BME280;29632;49.168;9.848;2023-03-15T02:14:59;96462.28;;;7.33;47.92
40838;BME280;29632;49.168;9.848;2023-03-15T02:17:34;96466.78;;;7.31;48.04
40838;BME280;29632;49.168;9.848;2023-03-15T02:20:24;96467.16;;;7.26;47.68
40838;BME280;29632;49.168;9.848;2023-03-15T02:23:10;96473.94;;;7.17;48.55
40838;BME280;29632;49.168;9.848;2023-03-15T02:28:24;96472.13;;;7.08;48.74
40838;BME280;29632;49.168;9.848;2023-03-15T02:30:50;96483.31;;;7.09;48.25
40838;BME280;29632;49.168;9.848;2023-03-15T02:33:26;96486.44;;;7.03;48.46
40838;BME280;29632;49.168;9.848;2023-03-15T02:35:53;96492.78;;;6.98;48.37
40838;BME280;29632;49.168;9.848;2023-03-15T02:38:19;96496.22;;;6.99;48.64
40838;BME280;29632;49.168;9.848;2023-03-15T02:40:47;96492.66;;;7.00;48.81
40838;BME280;29632;49.168;9.848;2023-03-15T02:43:16;96495.25;;;7.00;48.44
40838;BME280;29632;49.168;9.848;2023-03-15T02:45:43;96495.91;;;6.92;48.58
40838;BME280;29632;49.168;9.848;2023-03-15T02:48:10;96499.69;;;6.88;48.20
40838;BME280;29632;49.168;9.848;2023-03-15T02:50:36;96500.09;;;6.84;48.62
40838;BME280;29632;49.168;9.848;2023-03-15T02:53:02;96505.25;;;6.84;48.56
40838;BME280;29632;49.168;9.848;2023-03-15T02:55:29;96507.97;;;6.82;48.68
40838;BME280;29632;49.168;9.848;2023-03-15T02:57:57;96505.50;;;6.80;48.60
40838;BME280;29632;49.168;9.848;2023-03-15T03:00:23;96506.44;;;6.79;48.75
40838;BME280;29632;49.168;9.848;2023-03-15T03:02:49;96508.59;;;6.74;48.77
40838;BME280;29632;49.168;9.848;2023-03-15T03:05:15;96521.94;;;6.70;48.74
40838;BME280;29632;49.168;9.848;2023-03-15T03:07:41;96518.78;;;6.66;48.91
40838;BME280;29632;49.168;9.848;2023-03-15T03:10:15;96523.09;;;6.66;48.64
40838;BME280;29632;49.168;9.848;2023-03-15T03:12:41;96523.38;;;6.63;48.84
40838;BME280;29632;49.168;9.848;2023-03-15T03:15:07;96533.97;;;6.59;48.96
40838;BME280;29632;49.168;9.848;2023-03-15T03:17:32;96547.47;;;6.63;48.52
40838;BME280;29632;49.168;9.848;2023-03-15T03:20:09;96549.13;;;6.64;48.60
40838;BME280;29632;49.168;9.848;2023-03-15T03:22:36;96552.66;;;6.63;48.86
40838;BME280;29632;49.168;9.848;2023-03-15T03:25:02;96557.03;;;6.63;48.72
40838;BME280;29632;49.168;9.848;2023-03-15T03:27:29;96567.38;;;6.63;48.74
40838;BME280;29632;49.168;9.848;2023-03-15T03:29:55;96568.19;;;6.63;48.75
40838;BME280;29632;49.168;9.848;2023-03-15T03:32:20;96581.13;;;6.63;48.72
40838;BME280;29632;49.168;9.848;2023-03-15T03:34:46;96586.31;;;6.63;48.33
40838;BME280;29632;49.168;9.848;2023-03-15T03:37:18;96599.47;;;6.60;48.64
40838;BME280;29632;49.168;9.848;2023-03-15T03:39:44;96601.38;;;6.58;48.14
40838;BME280;29632;49.168;9.848;2023-03-15T03:42:10;96607.06;;;6.52;48.56
40838;BME280;29632;49.168;9.848;2023-03-15T03:44:36;96601.28;;;6.48;48.78
40838;BME280;29632;49.168;9.848;2023-03-15T03:47:01;96604.94;;;6.46;48.52
40838;BME280;29632;49.168;9.848;2023-03-15T03:49:27;96608.84;;;6.40;48.93
40838;BME280;29632;49.168;9.848;2023-03-15T03:51:53;96607.44;;;6.36;49.04
40838;BME280;29632;49.168;9.848;2023-03-15T03:54:18;96612.03;;;6.32;48.95
40838;BME280;29632;49.168;9.848;2023-03-15T03:56:47;96607.56;;;6.34;48.58
40838;BME280;29632;49.168;9.848;2023-03-15T03:59:13;96617.09;;;6.34;48.71
40838;BME280;29632;49.168;9.848;2023-03-15T04:01:39;96625.06;;;6.31;48.66
40838;BME280;29632;49.168;9.848;2023-03-15T04:04:07;96627.09;;;6.27;48.59
40838;BME280;29632;49.168;9.848;2023-03-15T04:06:32;96634.03;;;6.27;49.27
40838;BME280;29632;49.168;9.848;2023-03-15T04:08:58;96642.50;;;6.29;49.15
40838;BME280;29632;49.168;9.848;2023-03-15T04:11:24;96646.03;;;6.28;49.08
40838;BME280;29632;49.168;9.848;2023-03-15T04:13:52;96652.13;;;6.27;49.29
40838;BME280;29632;49.168;9.848;2023-03-15T04:16:18;96654.97;;;6.23;48.86
40838;BME280;29632;49.168;9.848;2023-03-15T04:18:44;96659.94;;;6.15;48.65
40838;BME280;29632;49.168;9.848;2023-03-15T04:21:09;96668.72;;;6.13;48.84
40838;BME280;29632;49.168;9.848;2023-03-15T04:23:36;96667.22;;;6.10;48.92
40838;BME280;29632;49.168;9.848;2023-03-15T04:26:02;96671.81;;;6.07;49.25
40838;BME280;29632;49.168;9.848;2023-03-15T04:28:30;96672.03;;;6.03;49.25
40838;BME280;29632;49.168;9.848;2023-03-15T04:30:56;96676.38;;;6.03;49.14
40838;BME280;29632;49.168;9.848;2023-03-15T04:33:24;96675.81;;;5.99;48.94
40838;BME280;29632;49.168;9.848;2023-03-15T04:35:49;96675.06;;;5.97;49.16
40838;BME280;29632;49.168;9.848;2023-03-15T04:38:17;96683.69;;;5.98;48.83
40838;BME280;29632;49.168;9.848;2023-03-15T04:40:43;96683.56;;;5.99;48.94
40838;BME280;29632;49.168;9.848;2023-03-15T04:43:09;96687.66;;;6.02;49.01
40838;BME280;29632;49.168;9.848;2023-03-15T04:45:34;96688.38;;;6.04;48.89
40838;BME280;29632;49.168;9.848;2023-03-15T04:48:00;96684.47;;;6.10;48.79
40838;BME280;29632;49.168;9.848;2023-03-15T04:50:27;96695.28;;;6.15;48.81
40838;BME280;29632;49.168;9.848;2023-03-15T04:52:53;96697.06;;;6.14;48.73
40838;BME280;29632;49.168;9.848;2023-03-15T04:55:19;96697.97;;;6.13;49.17
40838;BME280;29632;49.168;9.848;2023-03-15T04:57:44;96703.16;;;6.13;48.89
40838;BME280;29632;49.168;9.848;2023-03-15T05:00:10;96704.81;;;6.14;49.11
40838;BME280;29632;49.168;9.848;2023-03-15T05:02:40;96709.41;;;6.11;49.06
40838;BME280;29632;49.168;9.848;2023-03-15T05:05:07;96708.94;;;6.05;49.05
40838;BME280;29632;49.168;9.848;2023-03-15T05:07:34;96715.41;;;6.00;48.92
40838;BME280;29632;49.168;9.848;2023-03-15T05:10:00;96717.16;;;5.99;48.65
40838;BME280;29632;49.168;9.848;2023-03-15T05:12:26;96724.09;;;5.99;48.92
40838;BME280;29632;49.168;9.848;2023-03-15T05:14:52;96715.63;;;5.97;49.06
40838;BME280;29632;49.168;9.848;2023-03-15T05:17:17;96713.97;;;5.96;48.85
40838;BME280;29632;49.168;9.848;2023-03-15T05:19:43;96715.94;;;5.92;48.80
40838;BME280;29632;49.168;9.848;2023-03-15T05:22:09;96718.22;;;5.97;49.18
40838;BME280;29632;49.168;9.848;2023-03-15T05:24:34;96715.41;;;6.00;48.98
40838;BME280;29632;49.168;9.848;2023-03-15T05:27:00;96719.16;;;6.07;49.13
40838;BME280;29632;49.168;9.848;2023-03-15T05:29:25;96723.84;;;6.13;48.60
40838;BME280;29632;49.168;9.848;2023-03-15T05:31:51;96722.22;;;6.12;48.98
40838;BME280;29632;49.168;9.848;2023-03-15T05:34:17;96726.81;;;6.09;48.38
40838;BME280;29632;49.168;9.848;2023-03-15T05:36:43;96727.13;;;6.04;48.71
40838;BME280;29632;49.168;9.848;2023-03-15T05:39:09;96725.03;;;5.98;49.04
40838;BME280;29632;49.168;9.848;2023-03-15T05:41:36;96722.19;;;6.01;48.66
40838;BME280;29632;49.168;9.848;2023-03-15T05:44:02;96728.81;;;6.05;48.89
40838;BME280;29632;49.168;9.848;2023-03-15T05:46:28;96731.16;;;6.08;48.83
40838;BME280;29632;49.168;9.848;2023-03-15T05:48:54;96738.44;;;6.14;48.62
40838;BME280;29632;49.168;9.848;2023-03-15T05:51:19;96729.38;;;6.20;48.67
40838;BME280;29632;49.168;9.848;2023-03-15T05:53:45;96734.78;;;6.28;48.48
40838;BME280;29632;49.168;9.848;2023-03-15T05:56:11;96731.00;;;6.32;48.54
40838;BME280;29632;49.168;9.848;2023-03-15T05:58:36;96732.56;;;6.35;48.28
40838;BME280;29632;49.168;9.848;2023-03-15T06:01:03;96733.25;;;6.37;48.30
40838;BME280;29632;49.168;9.848;2023-03-15T06:03:31;96734.78;;;6.39;48.47
40838;BME280;29632;49.168;9.848;2023-03-15T06:05:57;96727.34;;;6.46;48.34
40838;BME280;29632;49.168;9.848;2023-03-15T06:08:23;96732.31;;;6.49;48.30
40838;BME280;29632;49.168;9.848;2023-03-15T06:10:49;96733.00;;;6.51;48.31
40838;BME280;29632;49.168;9.848;2023-03-15T06:13:15;96729.25;;;6.55;48.35
40838;BME280;29632;49.168;9.848;2023-03-15T06:15:41;96735.81;;;6.59;48.71
40838;BME280;29632;49.168;9.848;2023-03-15T06:18:07;96740.66;;;6.64;48.26
40838;BME280;29632;49.168;9.848;2023-03-15T06:20:32;96743.09;;;6.66;48.20
40838;BME280;29632;49.168;9.848;2023-03-15T06:22:58;96746.53;;;6.66;48.57
40838;BME280;29632;49.168;9.848;2023-03-15T06:25:24;96755.34;;;6.64;48.44
40838;BME280;29632;49.168;9.848;2023-03-15T06:27:50;96760.50;;;6.64;48.22
40838;BME280;29632;49.168;9.848;2023-03-15T06:30:15;96764.63;;;6.66;48.08
40838;BME280;29632;49.168;9.848;2023-03-15T06:32:41;96768.97;;;6.66;48.14
40838;BME280;29632;49.168;9.848;2023-03-15T06:35:07;96768.97;;;6.66;48.59
40838;BME280;29632;49.168;9.848;2023-03-15T06:37:33;96767.94;;;6.68;48.45
40838;BME280;29632;49.168;9.848;2023-03-15T06:40:02;96774.50;;;6.72;48.17
40838;BME280;29632;49.168;9.848;2023-03-15T06:42:30;96770.88;;;6.75;48.64
40838;BME280;29632;49.168;9.848;2023-03-15T06:44:56;96767.81;;;6.70;48.47
40838;BME280;29632;49.168;9.848;2023-03-15T06:47:21;96768.75;;;6.69;48.57
40838;BME280;29632;49.168;9.848;2023-03-15T06:49:47;96765.00;;;6.73;48.44
40838;BME280;29632;49.168;9.848;2023-03-15T06:52:15;96767.88;;;6.79;48.37
40838;BME280;29632;49.168;9.848;2023-03-15T06:54:41;96764.59;;;6.77;48.16
40838;BME280;29632;49.168;9.848;2023-03-15T06:57:07;96760.50;;;6.75;48.40
40838;BME280;29632;49.168;9.848;2023-03-15T06:59:32;96765.00;;;6.73;48.25
40838;BME280;29632;49.168;9.848;2023-03-15T07:01:58;96757.22;;;6.73;48.70
40838;BME280;29632;49.168;9.848;2023-03-15T07:04:24;96761.44;;;6.74;48.72
40838;BME280;29632;49.168;9.848;2023-03-15T07:06:50;96769.09;;;6.75;47.96
40838;BME280;29632;49.168;9.848;2023-03-15T07:09:15;96764.13;;;6.72;48.32
40838;BME280;29632;49.168;9.848;2023-03-15T07:11:41;96771.69;;;6.75;48.76
40838;BME280;29632;49.168;9.848;2023-03-15T07:14:07;96784.63;;;6.75;48.62
40838;BME280;29632;49.168;9.848;2023-03-15T07:16:32;96786.97;;;6.78;48.65
40838;BME280;29632;49.168;9.848;2023-03-15T07:18:58;96794.34;;;6.83;48.63
40838;BME280;29632;49.168;9.848;2023-03-15T07:21:25;96790.50;;;6.89;48.51
40838;BME280;29632;49.168;9.848;2023-03-15T07:23:51;96793.44;;;6.95;48.45
40838;BME280;29632;49.168;9.848;2023-03-15T07:26:16;96787.03;;;6.99;48.25
40838;BME280;29632;49.168;9.848;2023-03-15T07:28:42;96787.50;;;7.05;48.42
40838;BME280;29632;49.168;9.848;2023-03-15T07:31:09;96784.41;;;7.11;48.00
40838;BME280;29632;49.168;9.848;2023-03-15T07:33:36;96786.66;;;7.15;48.25
40838;BME280;29632;49.168;9.848;2023-03-15T07:36:03;96786.28;;;7.20;47.51
40838;BME280;29632;49.168;9.848;2023-03-15T07:38:29;96781.56;;;7.25;48.36
40838;BME280;29632;49.168;9.848;2023-03-15T07:40:55;96793.19;;;7.31;47.47
40838;BME280;29632;49.168;9.848;2023-03-15T07:43:21;96787.63;;;7.35;47.84
40838;BME280;29632;49.168;9.848;2023-03-15T07:45:47;96791.63;;;7.40;47.74
40838;BME280;29632;49.168;9.848;2023-03-15T07:48:12;96793.72;;;7.46;48.04
40838;BME280;29632;49.168;9.848;2023-03-15T07:50:38;96793.13;;;7.53;47.64
40838;BME280;29632;49.168;9.848;2023-03-15T07:53:04;96793.44;;;7.60;47.19
40838;BME280;29632;49.168;9.848;2023-03-15T07:55:31;96798.00;;;7.68;47.11
40838;BME280;29632;49.168;9.848;2023-03-15T07:57:57;96794.88;;;7.74;47.80
40838;BME280;29632;49.168;9.848;2023-03-15T08:00:22;96803.09;;;7.79;46.95
40838;BME280;29632;49.168;9.848;2023-03-15T08:02:48;96811.34;;;7.84;47.59
40838;BME280;29632;49.168;9.848;2023-03-15T08:05:14;96814.66;;;7.86;47.58
40838;BME280;29632;49.168;9.848;2023-03-15T08:07:44;96811.66;;;7.91;47.02
40838;BME280;29632;49.168;9.848;2023-03-15T08:10:11;96811.53;;;7.92;47.11
40838;BME280;29632;49.168;9.848;2023-03-15T08:12:36;96806.47;;;7.91;47.55
40838;BME280;29632;49.168;9.848;2023-03-15T08:15:04;96815.81;;;7.82;46.91
40838;BME280;29632;49.168;9.848;2023-03-15T08:17:30;96814.56;;;7.77;47.60
40838;BME280;29632;49.168;9.848;2023-03-15T08:19:55;96816.59;;;7.73;47.28
40838;BME280;29632;49.168;9.848;2023-03-15T08:22:21;96816.47;;;7.74;47.32
40838;BME280;29632;49.168;9.848;2023-03-15T08:24:48;96823.78;;;7.69;48.20
40838;BME280;29632;49.168;9.848;2023-03-15T08:27:17;96820.41;;;7.57;47.72
40838;BME280;29632;49.168;9.848;2023-03-15T08:29:43;96825.16;;;7.52;47.68
40838;BME280;29632;49.168;9.848;2023-03-15T08:32:09;96827.16;;;7.49;48.29
40838;BME280;29632;49.168;9.848;2023-03-15T08:34:35;96823.53;;;7.51;48.29
40838;BME280;29632;49.168;9.848;2023-03-15T08:37:00;96825.38;;;7.61;48.50
40838;BME280;29632;49.168;9.848;2023-03-15T08:39:26;96836.19;;;7.66;47.93
40838;BME280;29632;49.168;9.848;2023-03-15T08:41:52;96838.38;;;7.70;47.76
40838;BME280;29632;49.168;9.848;2023-03-15T08:44:17;96843.22;;;7.75;47.81
40838;BME280;29632;49.168;9.848;2023-03-15T08:46:43;96844.22;;;7.84;48.21
40838;BME280;29632;49.168;9.848;2023-03-15T08:49:08;96855.88;;;7.89;47.62
40838;BME280;29632;49.168;9.848;2023-03-15T08:51:34;96851.00;;;7.96;47.49
40838;BME280;29632;49.168;9.848;2023-03-15T08:54:00;96857.22;;;8.05;47.91
40838;BME280;29632;49.168;9.848;2023-03-15T08:56:28;96852.78;;;8.17;47.89
40838;BME280;29632;49.168;9.848;2023-03-15T08:58:54;96857.41;;;8.34;47.72
40838;BME280;29632;49.168;9.848;2023-03-15T09:01:20;96853.94;;;8.76;46.50
40838;BME280;29632;49.168;9.848;2023-03-15T09:03:45;96851.19;;;9.18;46.31
40838;BME280;29632;49.168;9.848;2023-03-15T09:06:11;96859.31;;;9.44;45.88
40838;BME280;29632;49.168;9.848;2023-03-15T09:08:37;96858.25;;;9.56;45.83
40838;BME280;29632;49.168;9.848;2023-03-15T09:11:02;96865.34;;;9.64;45.62
40838;BME280;29632;49.168;9.848;2023-03-15T09:13:28;96866.88;;;9.67;45.98
40838;BME280;29632;49.168;9.848;2023-03-15T09:15:55;96867.00;;;9.65;45.77
40838;BME280;29632;49.168;9.848;2023-03-15T09:18:21;96866.31;;;9.63;46.01
40838;BME280;29632;49.168;9.848;2023-03-15T09:20:47;96869.75;;;9.63;46.37
40838;BME280;29632;49.168;9.848;2023-03-15T09:23:13;96863.84;;;9.61;46.79
40838;BME280;29632;49.168;9.848;2023-03-15T09:25:38;96874.53;;;9.58;46.73
40838;BME280;29632;49.168;9.848;2023-03-15T09:28:06;96877.00;;;9.60;46.90
40838;BME280;29632;49.168;9.848;2023-03-15T09:30:36;96868.38;;;9.59;46.72
40838;BME280;29632;49.168;9.848;2023-03-15T09:33:02;96870.97;;;9.59;46.80
40838;BME280;29632;49.168;9.848;2023-03-15T09:35:28;96870.13;;;9.49;46.91
40838;BME280;29632;49.168;9.848;2023-03-15T09:37:54;96878.06;;;9.48;47.11
40838;BME280;29632;49.168;9.848;2023-03-15T09:40:24;96876.28;;;9.48;46.93
40838;BME280;29632;49.168;9.848;2023-03-15T09:48:12;96883.91;;;9.30;47.43
40838;BME280;29632;49.168;9.848;2023-03-15T09:50:56;96884.31;;;9.25;47.54
40838;BME280;29632;49.168;9.848;2023-03-15T09:55:53;96882.94;;;9.21;47.94
40838;BME280;29632;49.168;9.848;2023-03-15T09:58:28;96885.78;;;9.18;47.57
40838;BME280;29632;49.168;9.848;2023-03-15T10:01:06;96888.34;;;9.08;47.65
40838;BME280;29632;49.168;9.848;2023-03-15T10:06:29;96879.06;;;9.06;47.81
40838;BME280;29632;49.168;9.848;2023-03-15T10:09:19;96876.72;;;9.03;47.50
40838;BME280;29632;49.168;9.848;2023-03-15T10:12:13;96876.84;;;9.01;47.60
40838;BME280;29632;49.168;9.848;2023-03-15T10:15:01;96878.25;;;9.05;47.33
40838;BME280;29632;49.168;9.848;2023-03-15T10:20:26;96876.72;;;9.03;47.48
40838;BME280;29632;49.168;9.848;2023-03-15T10:25:31;96884.97;;;8.77;48.12
40838;BME280;29632;49.168;9.848;2023-03-15T10:28:22;96892.97;;;8.64;47.39
40838;BME280;29632;49.168;9.848;2023-03-15T10:30:49;96894.97;;;8.51;47.95
40838;BME280;29632;49.168;9.848;2023-03-15T10:33:27;96908.66;;;8.42;47.73
40838;BME280;29632;49.168;9.848;2023-03-15T10:35:56;96900.53;;;8.35;47.89
40838;BME280;29632;49.168;9.848;2023-03-15T10:38:23;96898.72;;;8.26;47.91
40838;BME280;29632;49.168;9.848;2023-03-15T10:40:50;96909.75;;;8.18;48.44
40838;BME280;29632;49.168;9.848;2023-03-15T10:43:21;96898.59;;;8.06;48.83
40838;BME280;29632;49.168;9.848;2023-03-15T10:51:05;96903.25;;;7.91;48.19
40838;BME280;29632;49.168;9.848;2023-03-15T10:53:31;96906.09;;;7.88;48.55
40838;BME280;29632;49.168;9.848;2023-03-15T10:56:00;96907.41;;;7.83;48.65
40838;BME280;29632;49.168;9.848;2023-03-15T10:58:29;96901.06;;;7.75;48.43
40838;BME280;29632;49.168;9.848;2023-03-15T11:01:05;96908.25;;;7.72;48.35
40838;BME280;29632;49.168;9.848;2023-03-15T11:03:36;96917.94;;;7.70;48.57
40838;BME280;29632;49.168;9.848;2023-03-15T11:06:02;96909.94;;;7.62;47.87
40838;BME280;29632;49.168;9.848;2023-03-15T11:08:42;96909.75;;;7.53;48.33
40838;BME280;29632;49.168;9.848;2023-03-15T11:11:08;96916.56;;;7.54;48.35
40838;BME280;29632;49.168;9.848;2023-03-15T11:13:36;96920.22;;;7.52;48.26
40838;BME280;29632;49.168;9.848;2023-03-15T11:16:06;96915.28;;;7.49;48.54
40838;BME280;29632;49.168;9.848;2023-03-15T11:19:16;96913.50;;;7.49;48.54
40838;BME280;29632;49.168;9.848;2023-03-15T11:21:25;96913.97;;;7.54;48.74
40838;BME280;29632;49.168;9.848;2023-03-15T11:23:53;96907.84;;;7.55;47.89
40838;BME280;29632;49.168;9.848;2023-03-15T11:26:24;96903.94;;;7.61;48.28
40838;BME280;29632;49.168;9.848;2023-03-15T11:28:52;96904.41;;;7.66;47.89
40838;BME280;29632;49.168;9.848;2023-03-15T11:31:20;96903.47;;;7.67;48.38
40838;BME280;29632;49.168;9.848;2023-03-15T11:36:29;96913.66;;;7.80;48.16
40838;BME280;29632;49.168;9.848;2023-03-15T11:38:56;96903.88;;;7.84;47.89
40838;BME280;29632;49.168;9.848;2023-03-15T11:41:38;96907.59;;;7.91;48.40
40838;BME280;29632;49.168;9.848;2023-03-15T11:44:28;96906.69;;;7.92;47.94
40838;BME280;29632;49.168;9.848;2023-03-15T11:47:00;96904.66;;;7.96;47.89
40838;BME280;29632;49.168;9.848;2023-03-15T11:49:36;96908.88;;;7.97;48.21
40838;BME280;29632;49.168;9.848;2023-03-15T11:52:05;96911.91;;;8.02;47.91
40838;BME280;29632;49.168;9.848;2023-03-15T11:54:31;96914.28;;;8.05;47.78
40838;BME280;29632;49.168;9.848;2023-03-15T11:57:05;96907.81;;;7.99;48.49
40838;BME280;29632;49.168;9.848;2023-03-15T11:59:50;96911.47;;;7.97;48.13
40838;BME280;29632;49.168;9.848;2023-03-15T12:04:43;96909.06;;;7.84;48.73
40838;BME280;29632;49.168;9.848;2023-03-15T12:17:53;96914.03;;;7.75;48.63
40838;BME280;29632;49.168;9.848;2023-03-15T12:20:38;96929.69;;;7.74;48.64
40838;BME280;29632;49.168;9.848;2023-03-15T12:25:55;96918.44;;;7.64;49.04
40838;BME280;29632;49.168;9.848;2023-03-15T12:30:58;96917.97;;;7.59;48.66
40838;BME280;29632;49.168;9.848;2023-03-15T12:33:26;96919.03;;;7.56;48.73
40838;BME280;29632;49.168;9.848;2023-03-15T12:35:59;96918.22;;;7.55;48.63
40838;BME280;29632;49.168;9.848;2023-03-15T12:38:31;96921.63;;;7.56;48.96
40838;BME280;29632;49.168;9.848;2023-03-15T12:40:59;96924.09;;;7.57;48.63
40838;BME280;29632;49.168;9.848;2023-03-15T12:43:44;96922.44;;;7.56;49.02
40838;BME280;29632;49.168;9.848;2023-03-15T12:51:53;96921.84;;;7.64;48.72
40838;BME280;29632;49.168;9.848;2023-03-15T12:54:20;96925.03;;;7.68;48.40
40838;BME280;29632;49.168;9.848;2023-03-15T12:56:59;96924.66;;;7.72;48.50
40838;BME280;29632;49.168;9.848;2023-03-15T12:59:49;96927.00;;;7.75;48.97
40838;BME280;29632;49.168;9.848;2023-03-15T13:05:00;96924.50;;;7.85;48.44
40838;BME280;29632;49.168;9.848;2023-03-15T13:13:31;96929.78;;;7.95;48.64
40838;BME280;29632;49.168;9.848;2023-03-15T13:24:12;96923.28;;;7.89;48.93
40838;BME280;29632;49.168;9.848;2023-03-15T13:29:28;96920.63;;;7.80;48.50
40838;BME280;29632;49.168;9.848;2023-03-15T13:32:07;96923.59;;;7.75;49.12
40838;BME280;29632;49.168;9.848;2023-03-15T13:34:36;96921.00;;;7.75;48.77
40838;BME280;29632;49.168;9.848;2023-03-15T13:37:01;96929.22;;;7.80;48.93
40838;BME280;29632;49.168;9.848;2023-03-15T13:39:30;96936.25;;;7.89;48.98
40838;BME280;29632;49.168;9.848;2023-03-15T13:42:20;96926.16;;;7.86;48.34
40838;BME280;29632;49.168;9.848;2023-03-15T13:45:13;96929.00;;;7.83;48.81
40838;BME280;29632;49.168;9.848;2023-03-15T13:47:40;96927.84;;;7.76;48.88
40838;BME280;29632;49.168;9.848;2023-03-15T13:50:07;96923.94;;;7.70;49.04
40838;BME280;29632;49.168;9.848;2023-03-15T13:52:33;96924.22;;;7.67;49.01
40838;BME280;29632;49.168;9.848;2023-03-15T13:54:59;96922.53;;;7.66;49.09
40838;BME280;29632;49.168;9.848;2023-03-15T13:57:26;96920.78;;;7.67;49.05
40838;BME280;29632;49.168;9.848;2023-03-15T14:02:36;96925.59;;;7.71;48.64
40838;BME280;29632;49.168;9.848;2023-03-15T14:05:05;96928.44;;;7.68;48.82
40838;BME280;29632;49.168;9.848;2023-03-15T14:07:44;96925.03;;;7.68;48.55
40838;BME280;29632;49.168;9.848;2023-03-15T14:10:31;96918.06;;;7.68;49.27
40838;BME280;29632;49.168;9.848;2023-03-15T14:13:14;96918.63;;;7.72;48.87
40838;BME280;29632;49.168;9.848;2023-03-15T14:15:41;96916.38;;;7.79;49.07
40838;BME280;29632;49.168;9.848;2023-03-15T14:20:39;96921.78;;;7.87;48.93
40838;BME280;29632;49.168;9.848;2023-03-15T14:23:10;96923.97;;;7.91;48.54
40838;BME280;29632;49.168;9.848;2023-03-15T14:25:36;96923.63;;;7.96;48.92
40838;BME280;29632;49.168;9.848;2023-03-15T14:28:03;96917.50;;;7.97;48.42
40838;BME280;29632;49.168;9.848;2023-03-15T14:30:31;96918.06;;;8.01;48.41
40838;BME280;29632;49.168;9.848;2023-03-15T14:33:00;96915.09;;;8.05;48.74
40838;BME280;29632;49.168;9.848;2023-03-15T14:35:40;96915.41;;;8.12;48.91